Athens Ben Epps Airport
KAHN : now visible

Airfield :











YOU CAN JOIN US ON...

 
LOGIN :

Register | Disclaimer

   EN    FR    IT 

 









Legend :    VFR   Marginal VFR   IFR   Intensive IFR   Very Intensive IFR
Visi :
Ceiling :
>= 8 km
>= 3000ft
5 to 8 km
1000 to 3000 ft
1500m to 5 km
500 to 1000 ft
800 to 1500m
200 to 500 ft
< 800m
< 200 ft
Symbols :   Thunderstorms  Fog  Heavy snow  Heavy precipitations  Wind > 20 kt






- Airport Elevation : 808 ft
- IATA code : AHN


KAHN - Athens Ben Epps

CURRENT METAR :
  • 251951Z 00000KT 5SM HZ OVC004 11/08 A2993 RMK AO2 SLP137 T01110083

EXPIRED METARs :
  • 251937Z 00000KT 4SM BR OVC003 11/08 A2993 RMK AO2 T01060083
  • 251925Z VRB03KT 2SM BR OVC002 11/08 A2992 RMK AO2 T01060083
  • 251912Z 00000KT 1SM BR OVC002 10/08 A2993 RMK AO2 T01000083
  • 251902Z 12003KT 3/4SM BR OVC002 10/08 A2994 RMK AO2 T01000078
  • 251851Z 00000KT 1/2SM FG OVC002 09/08 A2994 RMK AO2 SLP140 T00940078
  • 251751Z 01004KT 1/2SM FG OVC002 09/08 A2995 RMK AO2 SLP145 T00940078 10100 20083 58012
  • 251711Z 03006KT 1/4SM FG OVC002 09/07 A2997 RMK AO2 T00940072
  • 251658Z 03005KT 3/4SM BR OVC002 09/07 A2998 RMK AO2 T00940072

TAF KAHN
Valid from the 25 at 18:00 until the 26 at 18:00 UTC


251739Z 2518/2618 VRB05KT 2SM BR SCT003 OVC006
TEMPO 2518/2521 1/2SM FG OVC002
FM252200 18005KT 6SM BR BKN010
FM260200 20007KT P6SM BKN030
FM260600 21010KT P6SM VCSH OVC010
FM260900 21010G18KT 3SM -SHRA BR FEW004 OVC008
FM261600 25009G17KT P6SM BKN012
KZTL FIR / North America



MET'MAP, your aeronautical weather chart ! - Copyright ORBIFLY December 2007 - Disclaimer

ORBIFLY MET'MAP TEAM :

Programming & Development : Alexandra Zaïnal
Concept & original design : Baudouin d'Aumeries
Assistance for programming : Marc-Olivier Méhu
Technical & hardware support : Manuel Goepfert

Contact : metmap@orbifly.com




SOURCES & CREDITS :

   NOAA       Earth
Advisory